Time;durP1;ratioP1;P1;durP2;ratioP2;P2;SDS_P1;SDS_P2;PMS_P1;PMS_P2;Temp;Humidity;BMP_temperature;BMP_pressure;BME280_temperature;BME280_humidity;BME280_pressure;Samples;Min_cycle;Max_cycle;Signal;HPM_P1;HPM_P2
2022/02/21 00:00:22;;;;;;;2.27;1.53;;;9.70;99.90;;;;;;5111207;28;20406;-44
2022/02/21 00:02:52;;;;;;;1.40;1.30;;;9.60;99.90;;;;;;5114354;28;20454;-45
2022/02/21 00:05:19;;;;;;;1.70;1.30;;;9.60;99.90;;;;;;5115157;28;20448;-44
2022/02/21 00:07:48;;;;;;;3.67;1.37;;;9.70;99.90;;;;;;5115359;28;20427;-44
2022/02/21 00:10:15;;;;;;;3.33;1.00;;;9.70;99.90;;;;;;5114973;28;20432;-44
2022/02/21 00:12:42;;;;;;;1.70;1.10;;;9.70;99.90;;;;;;5115150;28;20922;-44
2022/02/21 00:15:12;;;;;;;1.57;1.10;;;9.70;99.90;;;;;;5114886;28;20980;-46
2022/02/21 00:17:38;;;;;;;1.50;1.00;;;9.70;99.90;;;;;;5115390;28;20435;-43
2022/02/21 00:20:06;;;;;;;2.30;1.27;;;9.70;99.90;;;;;;5114540;28;20432;-44
2022/02/21 00:22:33;;;;;;;1.63;0.90;;;9.70;99.90;;;;;;5115127;28;20407;-43
2022/02/21 00:25:00;;;;;;;2.20;1.27;;;9.70;99.90;;;;;;5113523;28;20460;-46
2022/02/21 00:27:27;;;;;;;1.30;1.10;;;9.70;99.90;;;;;;5115028;28;20993;-44
2022/02/21 00:29:54;;;;;;;2.13;1.00;;;9.60;99.90;;;;;;5114487;28;20391;-43
2022/02/21 00:32:21;;;;;;;2.00;1.17;;;9.70;99.90;;;;;;5114703;28;20415;-44
2022/02/21 00:34:48;;;;;;;3.97;1.50;;;9.70;99.90;;;;;;5101069;28;20439;-44
2022/02/21 00:37:14;;;;;;;2.40;1.40;;;9.70;99.90;;;;;;5094248;28;20433;-43
2022/02/21 00:39:41;;;;;;;2.57;1.03;;;9.80;99.90;;;;;;5093809;28;20807;-43
2022/02/21 00:42:09;;;;;;;2.43;1.30;;;9.80;99.90;;;;;;5094179;28;20447;-42
2022/02/21 00:44:36;;;;;;;1.30;1.10;;;9.80;99.90;;;;;;5094072;28;20460;-46
2022/02/21 00:47:03;;;;;;;2.23;1.10;;;9.80;99.90;;;;;;5094056;28;20502;-43
2022/02/21 00:49:30;;;;;;;1.20;0.93;;;9.80;99.90;;;;;;5093668;28;20433;-45
2022/02/21 00:51:58;;;;;;;1.67;1.27;;;9.80;99.90;;;;;;5094163;28;20414;-43
2022/02/21 00:54:25;;;;;;;1.87;1.10;;;9.80;99.90;;;;;;5093937;28;20484;-43
2022/02/21 00:56:52;;;;;;;1.83;1.07;;;9.80;99.90;;;;;;5094004;28;20441;-44
2022/02/21 00:59:20;;;;;;;1.97;1.20;;;9.90;99.90;;;;;;5093459;28;20472;-44
2022/02/21 01:01:47;;;;;;;1.60;0.90;;;9.90;99.90;;;;;;5108556;28;20429;-44
2022/02/21 01:04:14;;;;;;;3.10;1.00;;;9.90;99.90;;;;;;5114127;28;20511;-44
2022/02/21 01:06:40;;;;;;;1.40;0.87;;;9.90;99.90;;;;;;5114242;28;20841;-45
2022/02/21 01:09:07;;;;;;;1.90;1.07;;;9.90;99.90;;;;;;5113852;28;20434;-43
2022/02/21 01:11:33;;;;;;;4.67;0.90;;;9.90;99.90;;;;;;5114118;28;20439;-41
2022/02/21 01:14:01;;;;;;;2.03;1.20;;;10.00;99.90;;;;;;5113964;28;20460;-42
2022/02/21 01:16:30;;;;;;;1.83;0.90;;;10.00;99.90;;;;;;5113938;28;20436;-43
2022/02/21 01:18:57;;;;;;;2.40;0.97;;;10.00;99.90;;;;;;5113463;28;21015;-44
2022/02/21 01:21:23;;;;;;;6.27;1.37;;;10.10;99.90;;;;;;5113967;28;20428;-43
2022/02/21 01:23:50;;;;;;;3.93;1.13;;;10.10;99.90;;;;;;5113805;28;20423;-43
2022/02/21 01:26:16;;;;;;;1.50;1.00;;;10.10;99.90;;;;;;5114283;28;20403;-41
2022/02/21 01:28:44;;;;;;;1.80;0.70;;;10.10;99.90;;;;;;5113411;28;20428;-42
2022/02/21 01:31:10;;;;;;;1.50;1.00;;;10.20;99.90;;;;;;5113605;28;20399;-42
2022/02/21 01:33:38;;;;;;;1.63;0.90;;;10.20;99.90;;;;;;5109941;28;20530;-44
2022/02/21 01:36:05;;;;;;;1.90;1.20;;;10.20;99.90;;;;;;5093222;28;20403;-42
2022/02/21 01:38:32;;;;;;;1.20;0.90;;;10.30;99.90;;;;;;5091433;28;20481;-43
2022/02/21 01:40:58;;;;;;;2.13;0.90;;;10.30;99.90;;;;;;5093155;28;20429;-42
2022/02/21 01:43:25;;;;;;;1.67;1.00;;;10.30;99.90;;;;;;5092896;28;20473;-43
2022/02/21 01:45:51;;;;;;;1.40;0.90;;;10.30;99.90;;;;;;5092930;28;20430;-44
2022/02/21 01:48:18;;;;;;;2.67;1.20;;;10.40;99.90;;;;;;5093088;28;20437;-43
2022/02/21 01:50:46;;;;;;;1.50;0.80;;;10.40;99.90;;;;;;5092717;28;20405;-43
2022/02/21 01:53:13;;;;;;;1.90;0.93;;;10.40;99.90;;;;;;5092709;28;20461;-43
2022/02/21 01:55:39;;;;;;;1.53;1.10;;;10.50;99.90;;;;;;5092709;28;20445;-44
2022/02/21 01:58:07;;;;;;;1.70;1.30;;;10.50;99.90;;;;;;5092519;28;20441;-44
2022/02/21 02:00:33;;;;;;;3.10;1.30;;;10.50;99.90;;;;;;5095639;28;20419;-43
2022/02/21 02:03:00;;;;;;;1.90;0.87;;;10.60;99.90;;;;;;5111736;28;20452;-43
2022/02/21 02:05:28;;;;;;;2.10;1.07;;;10.60;99.90;;;;;;5113031;28;20467;-43
2022/02/21 02:07:56;;;;;;;3.67;1.17;;;10.60;99.90;;;;;;5113044;28;20795;-41
2022/02/21 02:10:24;;;;;;;1.77;1.00;;;10.70;99.90;;;;;;5112637;28;20510;-43
2022/02/21 02:12:50;;;;;;;0.90;0.70;;;10.70;99.90;;;;;;5112971;28;20444;-43
2022/02/21 02:15:19;;;;;;;2.33;0.83;;;10.60;99.90;;;;;;5112915;28;20495;-43
2022/02/21 02:17:46;;;;;;;1.30;0.70;;;10.70;99.90;;;;;;5112730;28;20411;-45
2022/02/21 02:20:16;;;;;;;1.13;0.80;;;10.80;99.90;;;;;;5112331;28;20471;-44
2022/02/21 02:22:46;;;;;;;4.63;1.30;;;11.00;99.90;;;;;;5112736;28;20943;-43
2022/02/21 02:25:13;;;;;;;1.50;0.90;;;10.80;99.90;;;;;;5112308;28;20460;-44
2022/02/21 02:27:41;;;;;;;3.20;1.00;;;10.80;99.90;;;;;;5112622;28;20436;-43
2022/02/21 02:30:08;;;;;;;2.07;0.70;;;10.80;99.90;;;;;;5112119;28;20522;-42
2022/02/21 02:32:35;;;;;;;1.77;0.90;;;10.90;99.90;;;;;;5112377;28;20432;-44
2022/02/21 02:35:01;;;;;;;2.67;0.83;;;10.90;99.90;;;;;;5096882;28;20462;-43
2022/02/21 02:37:28;;;;;;;1.00;0.70;;;10.90;99.90;;;;;;5092071;28;20414;-42
2022/02/21 02:39:57;;;;;;;1.23;0.87;;;10.90;99.90;;;;;;5091536;28;20465;-42
2022/02/21 02:42:24;;;;;;;2.80;0.87;;;10.90;99.90;;;;;;5092218;28;20908;-41
2022/02/21 02:44:51;;;;;;;4.10;1.00;;;10.90;99.90;;;;;;5091817;28;20919;-43
2022/02/21 02:47:18;;;;;;;1.80;0.90;;;10.90;99.90;;;;;;5091937;28;20430;-43
2022/02/21 02:49:44;;;;;;;1.50;0.77;;;10.80;99.90;;;;;;5091672;28;20401;-42
2022/02/21 02:52:11;;;;;;;3.20;0.90;;;10.70;99.90;;;;;;5092315;28;20408;-44
2022/02/21 02:54:38;;;;;;;1.23;0.60;;;10.70;99.90;;;;;;5091780;28;20440;-42
2022/02/21 02:57:07;;;;;;;1.33;0.60;;;10.60;99.90;;;;;;5091875;28;20411;-41
2022/02/21 02:59:34;;;;;;;1.17;0.60;;;10.50;99.90;;;;;;5090065;28;20496;-43
2022/02/21 03:02:00;;;;;;;1.37;0.73;;;10.50;99.90;;;;;;5108599;28;20489;-43
2022/02/21 03:04:27;;;;;;;2.43;0.77;;;10.40;99.90;;;;;;5112004;28;20429;-42
2022/02/21 03:06:54;;;;;;;0.87;0.57;;;10.40;99.90;;;;;;5112124;28;20407;-44
2022/02/21 03:09:21;;;;;;;1.90;1.00;;;10.30;99.90;;;;;;5111823;28;20805;-44
2022/02/21 03:11:47;;;;;;;2.90;0.87;;;10.20;99.90;;;;;;5112143;28;20457;-45
2022/02/21 03:14:15;;;;;;;1.30;0.70;;;10.20;99.90;;;;;;5112017;28;20459;-43
2022/02/21 03:16:42;;;;;;;4.43;0.70;;;10.10;99.90;;;;;;5112014;28;20422;-43
2022/02/21 03:19:08;;;;;;;1.27;1.00;;;10.10;99.90;;;;;;5111408;28;20841;-43
2022/02/21 03:21:35;;;;;;;1.70;0.63;;;10.00;99.90;;;;;;5111912;28;20455;-43
2022/02/21 03:24:02;;;;;;;1.67;0.60;;;10.00;99.90;;;;;;5111819;28;20452;-44
2022/02/21 03:26:28;;;;;;;1.33;0.60;;;9.90;99.90;;;;;;5112215;28;20432;-43
2022/02/21 03:28:55;;;;;;;2.93;0.70;;;9.90;99.90;;;;;;5111600;28;20493;-42
2022/02/21 03:31:23;;;;;;;2.30;0.60;;;9.80;99.90;;;;;;5110572;28;20816;-42
2022/02/21 03:33:49;;;;;;;2.30;1.03;;;9.90;99.90;;;;;;5106165;28;20435;-43
2022/02/21 03:36:17;;;;;;;2.10;0.60;;;9.90;99.90;;;;;;5091607;28;20414;-44
2022/02/21 03:38:43;;;;;;;2.33;0.63;;;9.90;99.90;;;;;;5095014;28;20439;-42
2022/02/21 03:41:10;;;;;;;2.10;0.67;;;9.80;99.90;;;;;;5095380;28;20461;-45
2022/02/21 03:43:37;;;;;;;1.30;0.60;;;9.80;99.90;;;;;;5095299;28;20463;-42
2022/02/21 03:46:04;;;;;;;1.00;0.60;;;9.80;99.90;;;;;;5095335;28;20929;-43
2022/02/21 03:48:32;;;;;;;1.00;0.57;;;9.80;99.90;;;;;;5094794;28;20498;-43
2022/02/21 03:50:59;;;;;;;1.20;0.63;;;9.70;99.90;;;;;;5095109;28;20435;-43
2022/02/21 03:53:25;;;;;;;1.80;0.70;;;9.70;99.90;;;;;;5095075;28;20448;-42
2022/02/21 03:55:52;;;;;;;1.00;0.57;;;9.60;99.90;;;;;;5095230;28;20806;-42
2022/02/21 03:58:19;;;;;;;1.20;0.80;;;9.60;99.90;;;;;;5094957;28;20439;-43
2022/02/21 04:00:46;;;;;;;2.13;0.70;;;9.60;99.90;;;;;;5100844;28;20562;-43
2022/02/21 04:03:13;;;;;;;1.70;0.80;;;9.60;99.90;;;;;;5115353;28;20455;-45
2022/02/21 04:05:41;;;;;;;0.87;0.57;;;9.60;99.90;;;;;;5115200;28;20522;-44
2022/02/21 04:08:07;;;;;;;0.90;0.60;;;9.60;99.90;;;;;;5115161;28;20410;-43
2022/02/21 04:10:34;;;;;;;0.80;0.50;;;9.60;99.90;;;;;;5114895;28;20445;-43
2022/02/21 04:13:01;;;;;;;1.97;0.90;;;9.60;99.90;;;;;;5115100;28;20431;-42
2022/02/21 04:15:27;;;;;;;1.37;0.87;;;9.50;99.90;;;;;;5114961;28;20956;-44
2022/02/21 04:17:54;;;;;;;1.00;0.60;;;9.50;99.90;;;;;;5115164;28;20406;-43
2022/02/21 04:20:22;;;;;;;1.10;0.60;;;9.50;99.90;;;;;;5114588;28;20486;-42
2022/02/21 04:22:51;;;;;;;1.30;0.87;;;9.50;99.90;;;;;;5114960;28;20768;-45
2022/02/21 04:25:18;;;;;;;1.70;0.60;;;9.50;99.90;;;;;;5114778;28;20468;-43
2022/02/21 04:27:46;;;;;;;1.57;0.80;;;9.50;99.90;;;;;;5114911;28;20432;-42
2022/02/21 04:30:14;;;;;;;1.10;0.73;;;9.50;99.90;;;;;;5114504;28;20943;-43
2022/02/21 04:32:43;;;;;;;1.87;0.70;;;9.50;99.90;;;;;;5114878;28;20916;-42
2022/02/21 04:35:10;;;;;;;1.80;0.77;;;9.40;99.90;;;;;;5098047;28;20436;-45
2022/02/21 04:37:38;;;;;;;1.80;0.80;;;9.40;99.90;;;;;;5094404;28;20444;-42
2022/02/21 04:40:08;;;;;;;1.03;0.63;;;9.40;99.90;;;;;;5093735;28;20480;-43
2022/02/21 04:42:36;;;;;;;2.43;0.90;;;9.40;99.90;;;;;;5093953;28;20909;-42
2022/02/21 04:45:03;;;;;;;1.47;0.90;;;9.40;99.90;;;;;;5094049;28;20979;-43
2022/02/21 04:47:29;;;;;;;1.00;0.67;;;9.30;99.90;;;;;;5093654;28;20783;-43
2022/02/21 04:49:56;;;;;;;0.90;0.60;;;9.30;99.90;;;;;;5093766;28;20411;-44
2022/02/21 04:52:23;;;;;;;2.67;0.87;;;9.30;99.90;;;;;;5094125;28;20433;-42
2022/02/21 04:54:50;;;;;;;2.07;0.87;;;9.20;99.90;;;;;;5097944;22;20501;-52
2022/02/21 04:57:18;;;;;;;2.20;1.10;;;9.20;99.90;;;;;;5073450;28;20433;-52
2022/02/21 04:59:44;;;;;;;2.20;1.17;;;9.20;99.90;;;;;;5073157;28;20478;-51
2022/02/21 05:02:11;;;;;;;2.30;0.70;;;9.20;99.90;;;;;;5073390;28;20437;-51
2022/02/21 05:04:37;;;;;;;1.23;0.90;;;9.20;99.90;;;;;;5082087;28;20526;-50
2022/02/21 05:07:05;;;;;;;0.90;0.60;;;9.20;99.90;;;;;;5093478;28;20422;-51
2022/02/21 05:09:31;;;;;;;1.07;0.77;;;9.20;99.90;;;;;;5092963;28;20407;-50
2022/02/21 05:11:58;;;;;;;1.47;0.60;;;9.10;99.90;;;;;;5093400;28;20931;-50
2022/02/21 05:14:26;;;;;;;1.40;0.70;;;9.10;99.90;;;;;;5093201;28;20458;-51
2022/02/21 05:16:53;;;;;;;1.63;1.00;;;9.00;99.90;;;;;;5093039;28;20425;-51
2022/02/21 05:19:20;;;;;;;1.73;0.80;;;9.00;99.90;;;;;;5092559;28;20431;-51
2022/02/21 05:21:46;;;;;;;2.50;1.03;;;9.00;99.90;;;;;;5092698;28;20491;-51
2022/02/21 05:24:13;;;;;;;4.23;1.17;;;9.00;99.90;;;;;;5092844;28;20431;-51
2022/02/21 05:26:40;;;;;;;2.23;1.20;;;9.00;99.90;;;;;;5093127;28;20429;-51
2022/02/21 05:29:07;;;;;;;3.13;1.23;;;9.00;99.90;;;;;;5092628;28;20429;-51
2022/02/21 05:31:35;;;;;;;3.40;1.10;;;8.90;99.90;;;;;;5093032;28;20947;-52
2022/02/21 05:34:02;;;;;;;7.63;1.03;;;8.90;99.90;;;;;;5092722;28;20464;-51
2022/02/21 05:36:29;;;;;;;1.87;0.90;;;8.90;99.90;;;;;;5092909;28;21081;-51
2022/02/21 05:38:55;;;;;;;3.27;1.00;;;8.80;99.90;;;;;;5092215;28;20429;-51
2022/02/21 05:41:22;;;;;;;2.90;1.30;;;8.80;99.90;;;;;;5092600;28;20455;-51
2022/02/21 05:43:49;;;;;;;5.30;1.50;;;8.70;99.90;;;;;;5092399;28;20429;-51
2022/02/21 05:46:15;;;;;;;3.07;1.30;;;8.70;99.90;;;;;;5092394;28;20527;-51
2022/02/21 05:48:43;;;;;;;4.67;1.73;;;8.70;99.90;;;;;;5092012;28;20437;-51
2022/02/21 05:51:10;;;;;;;3.97;2.20;;;8.70;99.90;;;;;;5092521;28;20504;-52
2022/02/21 05:53:41;;;;;;;6.87;2.70;;;8.60;99.90;;;;;;5091897;28;20439;-52
2022/02/21 05:56:08;;;;;;;5.67;1.43;;;8.60;99.90;;;;;;5092140;28;20395;-51
2022/02/21 05:58:34;;;;;;;3.77;1.63;;;8.60;99.90;;;;;;5091827;28;20444;-51
2022/02/21 06:01:01;;;;;;;3.73;1.47;;;8.60;99.90;;;;;;5091386;28;20849;-50
2022/02/21 06:03:28;;;;;;;1.77;1.40;;;8.50;99.90;;;;;;5092072;28;20429;-51
2022/02/21 06:05:56;;;;;;;2.90;1.53;;;8.60;99.90;;;;;;5091427;28;20464;-51
2022/02/21 06:08:23;;;;;;;5.13;2.40;;;8.50;99.90;;;;;;5092561;28;20757;-53
2022/02/21 06:10:49;;;;;;;3.73;2.07;;;8.50;99.90;;;;;;5091838;28;20440;-51
2022/02/21 06:13:16;;;;;;;3.60;1.87;;;8.50;99.90;;;;;;5092204;28;20435;-51
2022/02/21 06:15:43;;;;;;;2.80;1.87;;;8.60;99.90;;;;;;5091740;28;20427;-51
2022/02/21 06:18:09;;;;;;;3.03;1.40;;;8.50;99.90;;;;;;5091042;28;20871;-50
2022/02/21 06:20:36;;;;;;;4.27;2.30;;;8.50;99.90;;;;;;5091078;28;20479;-50
2022/02/21 06:23:04;;;;;;;4.70;2.10;;;8.40;99.90;;;;;;5091560;28;20917;-51
2022/02/21 06:25:31;;;;;;;6.17;2.13;;;8.30;99.90;;;;;;5072739;28;20450;-51
2022/02/21 06:27:58;;;;;;;10.13;2.10;;;8.20;99.90;;;;;;5091476;28;20414;-52
2022/02/21 06:30:24;;;;;;;5.20;2.40;;;8.10;99.90;;;;;;5090750;28;20498;-50
2022/02/21 06:32:51;;;;;;;6.30;2.30;;;8.10;99.90;;;;;;5091766;28;20537;-51
2022/02/21 06:35:18;;;;;;;10.27;3.10;;;8.10;99.90;;;;;;5091572;28;20456;-50
2022/02/21 06:37:46;;;;;;;9.20;2.30;;;8.00;99.90;;;;;;5091072;28;20429;-51
2022/02/21 06:40:15;;;;;;;5.40;1.97;;;8.00;99.90;;;;;;5090719;28;20447;-51
2022/02/21 06:42:43;;;;;;;7.67;2.73;;;8.00;99.90;;;;;;5091199;28;20406;-52
2022/02/21 06:45:10;;;;;;;6.33;2.07;;;8.00;99.90;;;;;;5090808;28;20535;-52
2022/02/21 06:47:37;;;;;;;4.60;2.17;;;7.90;99.90;;;;;;5090751;28;20506;-52
2022/02/21 06:50:06;;;;;;;10.03;2.33;;;7.90;99.90;;;;;;5090891;28;20426;-49
2022/02/21 06:52:33;;;;;;;5.33;2.10;;;7.90;99.90;;;;;;5091147;28;20922;-51
2022/02/21 06:54:59;;;;;;;5.43;2.30;;;7.90;99.90;;;;;;5091148;28;20478;-51
2022/02/21 06:57:28;;;;;;;9.43;2.30;;;7.90;99.90;;;;;;5091347;28;20408;-51
2022/02/21 06:59:55;;;;;;;4.50;1.60;;;7.80;99.90;;;;;;5090152;28;20433;-51
2022/02/21 07:02:22;;;;;;;7.17;2.10;;;7.80;99.90;;;;;;5072722;28;20503;-51
2022/02/21 07:04:49;;;;;;;4.53;2.00;;;7.90;99.90;;;;;;5091011;28;20449;-51
2022/02/21 07:07:15;;;;;;;4.20;1.80;;;8.00;99.90;;;;;;5091192;28;20523;-51
2022/02/21 07:09:42;;;;;;;4.03;1.60;;;8.00;99.90;;;;;;5091093;28;20403;-50
2022/02/21 07:12:09;;;;;;;4.33;1.50;;;8.00;99.90;;;;;;5094328;28;20439;-51
2022/02/21 07:14:37;;;;;;;4.03;1.77;;;8.00;99.90;;;;;;5095299;28;20463;-51
2022/02/21 07:17:04;;;;;;;4.37;2.57;;;8.10;99.90;;;;;;5095155;28;20407;-52
2022/02/21 07:19:31;;;;;;;7.37;1.83;;;8.10;99.90;;;;;;5094874;28;20433;-51
2022/02/21 07:21:59;;;;;;;6.67;2.30;;;8.10;99.90;;;;;;5095261;28;20476;-52
2022/02/21 07:24:25;;;;;;;10.23;2.20;;;8.10;99.90;;;;;;5095318;28;20455;-52
2022/02/21 07:26:52;;;;;;;6.83;1.90;;;8.10;99.90;;;;;;5094977;28;20502;-54
2022/02/21 07:29:19;;;;;;;6.60;2.37;;;8.10;99.90;;;;;;5094369;28;20432;-52
2022/02/21 07:31:46;;;;;;;6.70;2.57;;;8.00;99.90;;;;;;5094530;28;20409;-51
2022/02/21 07:34:13;;;;;;;8.07;2.53;;;7.90;99.90;;;;;;5094725;28;20448;-50
2022/02/21 07:36:40;;;;;;;7.70;2.33;;;7.80;99.90;;;;;;5076239;28;20456;-53
2022/02/21 07:39:07;;;;;;;10.53;2.90;;;7.70;99.90;;;;;;5094227;28;20440;-51
2022/02/21 07:41:33;;;;;;;10.27;2.40;;;7.60;99.90;;;;;;5094310;28;20469;-52
2022/02/21 07:44:00;;;;;;;13.10;4.10;;;7.70;99.90;;;;;;5094370;28;20524;-52
2022/02/21 07:46:27;;;;;;;10.17;3.00;;;7.50;99.90;;;;;;5094712;28;20403;-51
2022/02/21 07:48:55;;;;;;;10.40;3.47;;;7.50;99.90;;;;;;5094379;28;20437;-52
2022/02/21 07:51:22;;;;;;;13.13;3.00;;;7.60;99.90;;;;;;5094841;28;20405;-51
2022/02/21 07:53:48;;;;;;;11.87;2.67;;;7.60;99.90;;;;;;5094309;28;20809;-51
2022/02/21 07:56:15;;;;;;;11.40;3.30;;;7.70;99.90;;;;;;5075833;28;20972;-51
2022/02/21 07:58:42;;;;;;;17.40;4.30;;;8.00;99.90;;;;;;5093836;28;20986;-52
2022/02/21 08:01:08;;;;;;;8.30;3.13;;;8.00;99.90;;;;;;5094462;28;20454;-52
2022/02/21 08:03:37;;;;;;;8.03;2.60;;;8.00;99.90;;;;;;5094411;28;20435;-52
2022/02/21 08:06:06;;;;;;;6.50;2.20;;;8.10;99.90;;;;;;5094205;28;20414;-52
2022/02/21 08:08:32;;;;;;;15.10;3.00;;;8.10;99.90;;;;;;5094106;28;20426;-50
2022/02/21 08:10:59;;;;;;;8.50;3.67;;;8.20;99.90;;;;;;5094205;28;20408;-52
2022/02/21 08:13:26;;;;;;;9.90;3.07;;;8.30;99.90;;;;;;5094748;28;20429;-51
2022/02/21 08:15:52;;;;;;;9.23;3.10;;;8.30;99.90;;;;;;5093815;28;20431;-51
2022/02/21 08:18:19;;;;;;;11.50;3.10;;;8.30;99.90;;;;;;5093837;28;20407;-51
2022/02/21 08:20:46;;;;;;;10.23;2.77;;;8.40;99.90;;;;;;5094172;28;20508;-52
2022/02/21 08:23:14;;;;;;;7.33;2.83;;;8.40;99.90;;;;;;5093143;28;20907;-52
2022/02/21 08:25:40;;;;;;;14.63;3.20;;;8.40;99.90;;;;;;5093898;28;20544;-51
2022/02/21 08:28:08;;;;;;;11.93;2.80;;;8.40;99.90;;;;;;5093929;28;20851;-52
2022/02/21 08:30:34;;;;;;;7.40;2.53;;;8.50;99.90;;;;;;5093767;28;20433;-51
2022/02/21 08:33:01;;;;;;;8.80;2.73;;;8.40;99.90;;;;;;5094108;28;20921;-51
2022/02/21 08:35:28;;;;;;;11.30;4.40;;;8.50;99.90;;;;;;5093663;28;20443;-50
2022/02/21 08:37:55;;;;;;;12.80;2.57;;;8.50;99.90;;;;;;5093734;28;20436;-51
2022/02/21 08:40:24;;;;;;;7.53;2.80;;;8.50;99.90;;;;;;5093759;28;20432;-51
2022/02/21 08:42:51;;;;;;;5.73;2.80;;;8.50;99.90;;;;;;5093942;28;21006;-51
2022/02/21 08:45:18;;;;;;;8.50;2.43;;;8.30;99.90;;;;;;5093756;28;20427;-52
2022/02/21 08:47:46;;;;;;;7.80;2.20;;;8.30;99.90;;;;;;5094157;28;20918;-53
2022/02/21 08:50:14;;;;;;;4.97;2.00;;;8.20;99.90;;;;;;5094169;28;20439;-53
2022/02/21 08:52:42;;;;;;;6.83;2.43;;;8.10;99.90;;;;;;5093872;28;20437;-51
2022/02/21 08:55:10;;;;;;;13.97;3.13;;;8.20;99.90;;;;;;5093746;28;20471;-52
2022/02/21 08:57:38;;;;;;;5.80;2.00;;;8.30;99.90;;;;;;5093815;28;20451;-51
2022/02/21 09:00:07;;;;;;;6.97;1.80;;;8.30;99.90;;;;;;5093224;28;20439;-51
2022/02/21 09:02:34;;;;;;;4.60;2.20;;;8.30;99.90;;;;;;5093680;28;20480;-51
2022/02/21 09:05:01;;;;;;;13.00;2.87;;;8.40;99.90;;;;;;5094058;28;20428;-52
2022/02/21 09:07:28;;;;;;;8.33;2.43;;;8.50;99.90;;;;;;5093871;28;20510;-51
2022/02/21 09:09:54;;;;;;;9.83;2.70;;;8.70;99.90;;;;;;5093193;28;20779;-51
2022/02/21 09:12:21;;;;;;;10.00;2.53;;;8.50;99.90;;;;;;5093924;28;20785;-51
2022/02/21 09:14:51;;;;;;;7.10;2.17;;;8.70;99.90;;;;;;5093683;28;20427;-51
2022/02/21 09:17:18;;;;;;;6.03;2.20;;;8.80;99.90;;;;;;5093301;28;20961;-52
2022/02/21 09:19:45;;;;;;;12.70;2.83;;;8.80;99.70;;;;;;5093074;28;20425;-52
2022/02/21 09:22:12;;;;;;;11.00;2.77;;;8.70;99.10;;;;;;5093537;28;20488;-51
2022/02/21 09:24:38;;;;;;;8.43;3.23;;;8.70;99.40;;;;;;5093647;28;20456;-51
2022/02/21 09:27:05;;;;;;;9.53;3.10;;;8.80;99.40;;;;;;5093475;28;20411;-50
2022/02/21 09:29:32;;;;;;;10.90;2.73;;;8.80;99.20;;;;;;5093241;28;20774;-52
2022/02/21 09:32:00;;;;;;;13.07;3.90;;;8.90;99.00;;;;;;5092925;28;20444;-52
2022/02/21 09:34:28;;;;;;;7.77;2.20;;;9.00;99.20;;;;;;5091499;28;20464;-52
2022/02/21 09:36:55;;;;;;;11.80;2.90;;;8.90;98.40;;;;;;5093398;28;20451;-52
2022/02/21 09:39:21;;;;;;;9.70;2.60;;;9.00;98.60;;;;;;5092521;28;20425;-52
2022/02/21 09:41:50;;;;;;;6.17;2.40;;;9.00;98.60;;;;;;5093240;28;20443;-51
2022/02/21 09:44:17;;;;;;;6.27;2.40;;;8.90;98.60;;;;;;5092425;28;20456;-51
2022/02/21 09:46:48;;;;;;;10.90;2.63;;;9.00;98.20;;;;;;5091823;28;20465;-51
2022/02/21 09:49:17;;;;;;;7.60;2.47;;;9.00;98.00;;;;;;5092399;28;20432;-51
2022/02/21 09:51:43;;;;;;;8.17;2.37;;;9.00;97.90;;;;;;5092255;28;20756;-51
2022/02/21 09:54:11;;;;;;;7.87;3.00;;;9.00;98.00;;;;;;5092156;28;20468;-51
2022/02/21 09:56:40;;;;;;;9.73;2.57;;;9.00;97.80;;;;;;5092756;28;20524;-52
2022/02/21 09:59:07;;;;;;;6.93;2.37;;;9.00;97.50;;;;;;5091222;28;20941;-51
2022/02/21 10:01:37;;;;;;;8.77;3.17;;;9.10;97.20;;;;;;5091937;28;21217;-51
2022/02/21 10:04:04;;;;;;;7.10;2.30;;;9.10;97.30;;;;;;5092180;28;20514;-51
2022/02/21 10:06:33;;;;;;;14.27;3.90;;;9.10;96.90;;;;;;5092601;28;20440;-52
2022/02/21 10:09:04;;;;;;;8.80;2.90;;;9.10;96.80;;;;;;5091801;28;20870;-50
2022/02/21 10:11:33;;;;;;;11.03;3.10;;;9.20;97.00;;;;;;5091999;28;20440;-51
2022/02/21 10:14:02;;;;;;;6.63;2.27;;;9.20;96.70;;;;;;5092225;28;20491;-52
2022/02/21 10:16:39;;;;;;;8.50;2.50;;;9.00;96.40;;;;;;5091907;28;20444;-52
2022/02/21 10:19:20;;;;;;;8.03;2.33;;;9.30;96.60;;;;;;5068626;28;20460;-52
2022/02/21 10:21:50;;;;;;;8.73;2.50;;;9.40;96.50;;;;;;5091537;28;20469;-51
2022/02/21 10:24:17;;;;;;;8.47;2.00;;;9.40;96.20;;;;;;5091432;28;20470;-52
2022/02/21 10:26:44;;;;;;;7.57;3.83;;;9.40;96.20;;;;;;5091453;28;20945;-52
2022/02/21 10:29:12;;;;;;;7.37;2.70;;;9.40;96.00;;;;;;5091506;28;20908;-51
2022/02/21 10:31:39;;;;;;;5.37;2.40;;;9.30;95.70;;;;;;5091688;28;20428;-51
2022/02/21 10:34:08;;;;;;;9.20;2.60;;;9.30;95.70;;;;;;5091440;28;20427;-51
2022/02/21 10:36:36;;;;;;;7.23;3.10;;;9.30;95.60;;;;;;5072832;28;20540;-51
2022/02/21 10:39:06;;;;;;;4.80;2.47;;;9.30;95.30;;;;;;5073014;28;20460;-50
2022/02/21 10:41:46;;;;;;;11.10;2.50;;;9.30;95.20;;;;;;5091320;28;21036;-51
2022/02/21 10:44:21;;;;;;;8.40;2.50;;;9.20;94.90;;;;;;5091762;28;20460;-51
2022/02/21 10:47:21;;;;;;;5.57;1.97;;;9.30;94.80;;;;;;5091153;28;20973;-51
2022/02/21 10:49:50;;;;;;;5.63;2.10;;;9.30;94.80;;;;;;5090550;28;20432;-51
2022/02/21 10:52:19;;;;;;;7.20;2.10;;;9.30;95.00;;;;;;5091243;28;20421;-51
2022/02/21 10:54:49;;;;;;;7.43;2.73;;;9.30;94.90;;;;;;5115349;22;20498;-43
2022/02/21 10:57:19;;;;;;;8.03;2.13;;;9.30;94.70;;;;;;5130830;27;20458;-44
2022/02/21 10:59:46;;;;;;;8.90;3.47;;;9.30;94.90;;;;;;5132014;27;20404;-43
2022/02/21 11:02:15;;;;;;;6.67;2.30;;;9.40;95.00;;;;;;5131749;28;20557;-44
2022/02/21 11:04:43;;;;;;;8.67;2.40;;;9.40;94.90;;;;;;5132094;28;20485;-45
2022/02/21 11:07:11;;;;;;;7.90;2.53;;;9.40;94.60;;;;;;5132159;28;20847;-44
2022/02/21 11:09:39;;;;;;;12.40;2.53;;;9.50;94.80;;;;;;5131917;27;20454;-44
2022/02/21 11:12:08;;;;;;;8.10;2.40;;;9.40;94.50;;;;;;5131998;27;20427;-44
2022/02/21 11:14:38;;;;;;;10.50;2.97;;;9.50;94.00;;;;;;5131851;28;20832;-43
2022/02/21 11:17:06;;;;;;;8.77;2.93;;;9.40;94.30;;;;;;5132235;28;20496;-43
2022/02/21 11:19:33;;;;;;;12.13;3.20;;;9.40;94.30;;;;;;5131636;28;20416;-43
2022/02/21 11:22:00;;;;;;;9.83;2.57;;;9.40;94.60;;;;;;5131860;28;20941;-44
2022/02/21 11:24:30;;;;;;;15.23;3.20;;;9.50;94.30;;;;;;5131000;28;20422;-43
2022/02/21 11:27:06;;;;;;;8.40;2.67;;;9.40;94.00;;;;;;5124472;28;20784;-44
2022/02/21 11:29:42;;;;;;;14.97;3.30;;;9.40;94.20;;;;;;5111300;28;20427;-42
2022/02/21 11:32:17;;;;;;;7.47;2.30;;;9.50;94.40;;;;;;5110980;28;20937;-44
2022/02/21 11:34:47;;;;;;;7.73;2.90;;;9.60;93.90;;;;;;5124114;28;20827;-42
2022/02/21 11:37:22;;;;;;;5.67;2.43;;;9.50;93.70;;;;;;5131662;28;20438;-42
2022/02/21 11:39:56;;;;;;;9.03;2.40;;;9.50;93.20;;;;;;5131485;28;20911;-44
2022/02/21 11:42:27;;;;;;;8.73;2.80;;;9.40;93.30;;;;;;5131738;28;20470;-44
2022/02/21 11:44:58;;;;;;;7.20;2.00;;;9.40;92.90;;;;;;5131502;27;20424;-45
2022/02/21 11:47:36;;;;;;;9.13;2.80;;;9.40;93.00;;;;;;5131636;27;20926;-45
2022/02/21 11:50:06;;;;;;;8.33;2.70;;;9.40;93.00;;;;;;5131695;28;20526;-43
2022/02/21 11:52:35;;;;;;;9.10;3.00;;;9.40;92.70;;;;;;5131255;28;20875;-45
2022/02/21 11:55:04;;;;;;;7.27;2.43;;;9.40;92.80;;;;;;5131735;28;20865;-41
2022/02/21 11:57:38;;;;;;;8.80;3.80;;;9.40;92.60;;;;;;5132032;27;20438;-46
2022/02/21 12:00:38;;;;;;;7.90;2.23;;;9.40;92.10;;;;;;5135191;27;20424;-46
2022/02/21 12:03:09;;;;;;;8.30;2.07;;;9.40;92.10;;;;;;5134631;27;20474;-46
2022/02/21 12:05:36;;;;;;;5.77;2.20;;;9.40;92.20;;;;;;5135588;27;20426;-44
2022/02/21 12:08:18;;;;;;;7.27;2.93;;;9.20;91.90;;;;;;5135899;27;20763;-44
2022/02/21 12:11:15;;;;;;;11.47;4.57;;;9.50;91.70;;;;;;5134373;27;20421;-44
2022/02/21 12:14:15;;;;;;;10.20;3.33;;;9.60;91.00;;;;;;5128447;27;20480;-45
2022/02/21 12:17:06;;;;;;;12.70;3.83;;;9.60;91.50;;;;;;5115026;27;20424;-44
2022/02/21 12:19:36;;;;;;;10.10;3.17;;;9.60;91.20;;;;;;5114348;28;20439;-45
2022/02/21 12:22:10;;;;;;;3.73;2.00;;;9.60;90.50;;;;;;5114747;28;20472;-45
2022/02/21 12:25:11;;;;;;;4.87;2.57;;;9.60;90.50;;;;;;5114455;28;20454;-46
2022/02/21 12:27:59;;;;;;;9.20;3.00;;;9.70;90.40;;;;;;5114451;28;20436;-43
2022/02/21 12:30:35;;;;;;;9.97;2.60;;;9.60;90.70;;;;;;5113739;28;20443;-45
2022/02/21 12:33:05;;;;;;;11.20;3.00;;;9.80;90.10;;;;;;5114388;28;20428;-43
2022/02/21 12:35:43;;;;;;;6.20;2.43;;;9.80;90.40;;;;;;5133538;27;21028;-43
2022/02/21 12:38:10;;;;;;;6.17;2.43;;;9.70;90.00;;;;;;5134772;27;20445;-43
2022/02/21 12:40:37;;;;;;;7.20;2.60;;;9.70;90.30;;;;;;5134431;27;20556;-43
2022/02/21 12:43:04;;;;;;;6.77;2.57;;;9.70;90.30;;;;;;5134712;27;20498;-45
2022/02/21 12:45:42;;;;;;;11.20;2.93;;;9.70;90.30;;;;;;5134376;27;20786;-44
2022/02/21 12:48:10;;;;;;;15.10;3.10;;;9.70;90.40;;;;;;5134818;27;20416;-43
2022/02/21 12:50:39;;;;;;;5.50;1.90;;;9.70;90.10;;;;;;5134159;27;20436;-42
2022/02/21 12:53:07;;;;;;;6.20;2.37;;;9.90;90.20;;;;;;5134581;27;20439;-43
2022/02/21 12:55:45;;;;;;;4.77;2.57;;;9.70;89.30;;;;;;5134140;27;20470;-41
2022/02/21 12:58:12;;;;;;;12.37;3.80;;;9.70;89.10;;;;;;5134155;27;20431;-45